createdAt,value
2018-03-08T00:01:23.249Z,36.37
2018-03-08T00:05:26.613Z,36.00
2018-03-08T00:09:30.057Z,36.57
2018-03-08T00:13:33.571Z,37.23
2018-03-08T00:17:36.943Z,36.73
2018-03-08T00:21:40.445Z,35.43
2018-03-08T00:25:43.822Z,35.97
2018-03-08T00:29:47.201Z,37.13
2018-03-08T00:33:50.638Z,37.73
2018-03-08T00:37:54.020Z,36.13
2018-03-08T00:41:58.158Z,36.80
2018-03-08T00:46:02.284Z,37.63
2018-03-08T00:50:06.119Z,36.27
2018-03-08T00:54:09.547Z,35.70
2018-03-08T00:58:12.918Z,36.67
2018-03-08T01:02:16.314Z,37.27
2018-03-08T01:06:20.441Z,36.10
2018-03-08T01:10:23.825Z,35.83
2018-03-08T01:14:27.188Z,38.07
2018-03-08T01:18:30.542Z,37.77
2018-03-08T01:22:34.794Z,36.07
2018-03-08T01:26:38.290Z,37.30
2018-03-08T01:30:42.438Z,38.60
2018-03-08T01:34:45.800Z,38.60
2018-03-08T01:38:49.187Z,37.07
2018-03-08T01:42:52.559Z,36.23
2018-03-08T01:46:56.334Z,37.20
2018-03-08T01:51:00.456Z,37.63
2018-03-08T01:55:04.685Z,37.17
2018-03-08T01:59:08.819Z,37.47
2018-03-08T02:03:13.074Z,37.10
2018-03-08T02:07:16.432Z,37.27
2018-03-08T02:11:20.589Z,39.40
2018-03-08T02:15:23.945Z,37.47
2018-03-08T02:19:27.352Z,36.77
2018-03-08T02:23:30.702Z,37.93
2018-03-08T02:27:34.074Z,39.33
2018-03-08T02:31:38.223Z,39.77
2018-03-08T02:35:41.788Z,40.13
2018-03-08T02:39:45.144Z,38.13
2018-03-08T02:43:48.493Z,40.57
2018-03-08T02:47:51.867Z,38.90
2018-03-08T02:51:55.222Z,38.17
2018-03-08T02:55:58.625Z,36.03
2018-03-08T03:00:02.062Z,36.23
2018-03-08T03:04:06.187Z,37.47
2018-03-08T03:08:10.333Z,37.33
2018-03-08T03:12:13.705Z,35.90
2018-03-08T03:16:17.839Z,37.63
2018-03-08T03:20:21.953Z,38.33
2018-03-08T03:24:26.090Z,36.67
2018-03-08T03:28:29.452Z,36.27
2018-03-08T03:32:32.814Z,36.87
2018-03-08T03:36:36.174Z,37.73
2018-03-08T03:40:40.293Z,35.63
2018-03-08T03:44:43.658Z,36.63
2018-03-08T03:48:47.033Z,35.67
2018-03-08T03:52:51.158Z,35.73
2018-03-08T03:56:55.282Z,34.90
2018-03-08T04:01:13.894Z,35.83
2018-03-08T04:05:17.262Z,38.03
2018-03-08T04:09:20.630Z,36.13
2018-03-08T04:13:24.018Z,35.30
2018-03-08T04:17:27.376Z,35.17
2018-03-08T04:21:30.745Z,35.67
2018-03-08T04:25:34.114Z,35.60
2018-03-08T04:29:37.654Z,35.13
2018-03-08T04:33:41.006Z,34.73
2018-03-08T04:37:44.397Z,35.13
2018-03-08T04:41:48.527Z,33.37
2018-03-08T04:45:51.961Z,33.80
2018-03-08T04:49:55.322Z,36.03
2018-03-08T04:53:59.444Z,35.77
2018-03-08T04:58:03.590Z,36.10
2018-03-08T05:02:07.050Z,34.37
2018-03-08T05:06:10.400Z,34.63
2018-03-08T05:10:13.776Z,35.10
2018-03-08T05:14:17.203Z,36.43
2018-03-08T05:18:21.342Z,37.90
2018-03-08T05:22:24.698Z,36.83
2018-03-08T05:26:28.209Z,37.93
2018-03-08T05:30:31.665Z,36.73
2018-03-08T05:34:35.030Z,37.80
2018-03-08T05:38:38.409Z,39.57
2018-03-08T05:42:41.764Z,40.37
2018-03-08T05:46:46.019Z,41.80
2018-03-08T05:50:49.373Z,40.97
2018-03-08T05:54:52.729Z,41.13
2018-03-08T05:58:56.082Z,42.10
2018-03-08T06:02:59.724Z,44.63
2018-03-08T06:07:03.102Z,44.77
2018-03-08T06:11:06.489Z,45.57
2018-03-08T06:15:09.971Z,45.30
2018-03-08T06:19:13.330Z,45.43
2018-03-08T06:23:16.711Z,48.83
2018-03-08T06:27:20.061Z,45.77
2018-03-08T06:31:24.189Z,47.67
2018-03-08T06:35:27.865Z,48.97
2018-03-08T06:39:31.250Z,47.70
2018-03-08T06:43:34.617Z,47.60
2018-03-08T06:47:37.995Z,51.87
2018-03-08T06:51:41.374Z,48.83
2018-03-08T06:55:44.752Z,48.03
2018-03-08T06:59:48.373Z,47.93
2018-03-08T07:03:51.760Z,46.37
2018-03-08T07:07:55.252Z,48.27
2018-03-08T07:11:59.580Z,47.60
2018-03-08T07:16:03.713Z,45.67
2018-03-08T07:20:07.909Z,48.73
2018-03-08T07:24:11.309Z,47.63
2018-03-08T07:28:14.645Z,46.87
2018-03-08T07:32:17.989Z,45.70
2018-03-08T07:36:21.472Z,47.53
2018-03-08T07:40:24.841Z,45.93
2018-03-08T07:44:28.223Z,46.47
2018-03-08T07:48:31.580Z,43.50
2018-03-08T07:52:34.958Z,46.07
2018-03-08T07:56:39.166Z,43.60
2018-03-08T08:00:42.576Z,45.63
2018-03-08T08:05:03.851Z,43.87
2018-03-08T08:09:10.099Z,39.63
2018-03-08T08:13:13.453Z,39.23
2018-03-08T08:17:16.814Z,38.33
2018-03-08T08:21:20.187Z,41.77
2018-03-08T08:25:23.552Z,38.83
2018-03-08T08:29:26.942Z,40.73
2018-03-08T08:33:30.350Z,40.43
2018-03-08T08:37:33.959Z,38.03
2018-03-08T08:41:37.404Z,40.67
2018-03-08T08:45:40.784Z,42.07
2018-03-08T08:49:44.320Z,39.03
2018-03-08T08:53:47.859Z,39.43
2018-03-08T08:57:52.097Z,43.63
2018-03-08T09:01:56.244Z,48.37
2018-03-08T09:05:59.638Z,48.70
2018-03-08T09:10:03.144Z,52.73
2018-03-08T09:14:06.549Z,55.77
2018-03-08T09:18:10.082Z,62.23
2018-03-08T09:22:13.443Z,64.53
2018-03-08T09:26:16.788Z,61.43
2018-03-08T09:30:20.176Z,63.97
2018-03-08T09:34:23.548Z,63.57
2018-03-08T09:38:27.090Z,64.23
2018-03-08T09:42:30.477Z,61.00
2018-03-08T09:46:33.914Z,62.53
2018-03-08T09:50:37.309Z,61.70
2018-03-08T09:54:40.688Z,63.70
2018-03-08T09:58:44.133Z,62.73
2018-03-08T10:02:47.525Z,64.20
2018-03-08T10:06:51.659Z,66.57
2018-03-08T10:10:55.032Z,65.53
2018-03-08T10:14:59.165Z,67.63
2018-03-08T10:19:03.307Z,68.60
2018-03-08T10:23:06.681Z,68.10
2018-03-08T10:27:10.135Z,64.03
2018-03-08T10:31:13.496Z,60.63
2018-03-08T10:35:17.034Z,53.60
2018-03-08T10:43:24.021Z,55.27
2018-03-08T10:47:27.377Z,46.57
2018-03-08T10:51:30.740Z,50.93
2018-03-08T10:55:34.877Z,43.30
2018-03-08T10:59:39.111Z,45.10
2018-03-08T11:03:48.583Z,42.57
2018-03-08T11:07:52.050Z,41.50
2018-03-08T11:11:56.376Z,40.53
2018-03-08T11:16:00.511Z,38.40
2018-03-08T11:20:04.788Z,34.20
2018-03-08T11:24:08.266Z,32.33
2018-03-08T11:28:11.653Z,22.90
2018-03-08T11:32:16.005Z,29.97
2018-03-08T11:36:19.376Z,25.77
2018-03-08T11:40:23.630Z,26.13
2018-03-08T11:44:26.982Z,30.00
2018-03-08T11:48:30.537Z,29.40
2018-03-08T11:52:33.957Z,27.60
2018-03-08T11:56:37.360Z,29.83
2018-03-08T12:00:40.763Z,30.30
2018-03-08T12:04:44.270Z,32.80
2018-03-08T12:08:47.780Z,34.87
2018-03-08T12:12:51.154Z,35.43
2018-03-08T12:16:54.561Z,36.33
2018-03-08T12:20:58.299Z,36.43
2018-03-08T12:25:01.734Z,37.47
2018-03-08T12:29:05.189Z,40.53
2018-03-08T12:33:08.908Z,42.40
2018-03-08T12:37:13.048Z,40.33
2018-03-08T12:41:17.339Z,41.23
2018-03-08T12:45:20.824Z,42.20
2018-03-08T12:49:24.204Z,40.93
2018-03-08T12:53:27.636Z,39.73
2018-03-08T12:57:31.001Z,39.93
2018-03-08T13:01:35.142Z,38.23
2018-03-08T13:05:38.527Z,35.90
2018-03-08T13:09:42.772Z,36.20
2018-03-08T13:13:46.383Z,38.47
2018-03-08T13:17:49.792Z,35.20
2018-03-08T13:21:53.158Z,35.90
2018-03-08T13:25:56.531Z,35.63
2018-03-08T13:30:00.079Z,36.93
2018-03-08T13:34:04.294Z,32.77
2018-03-08T13:38:07.791Z,31.90
2018-03-08T13:42:11.158Z,32.20
2018-03-08T13:46:14.823Z,32.43
2018-03-08T13:50:18.197Z,29.90
2018-03-08T13:54:21.570Z,28.23
2018-03-08T13:58:25.015Z,29.77
2018-03-08T14:02:28.624Z,35.63
2018-03-08T14:06:32.055Z,27.43
2018-03-08T14:10:35.614Z,27.27
2018-03-08T14:14:39.787Z,25.83
2018-03-08T14:18:43.212Z,25.90
2018-03-08T14:22:47.340Z,29.07
2018-03-08T14:26:51.479Z,27.73
2018-03-08T14:30:54.853Z,27.13
2018-03-08T14:34:58.982Z,28.23
2018-03-08T14:39:03.313Z,27.03
2018-03-08T14:43:07.452Z,27.80
2018-03-08T14:47:12.055Z,29.17
2018-03-08T14:51:16.957Z,28.70
2018-03-08T14:55:20.608Z,27.97
2018-03-08T14:59:24.069Z,27.93
2018-03-08T15:03:27.437Z,29.53
2018-03-08T15:07:31.668Z,29.10
2018-03-08T15:11:35.811Z,27.40
2018-03-08T15:15:39.177Z,29.30
2018-03-08T15:19:42.750Z,30.20
2018-03-08T15:23:46.152Z,31.43
2018-03-08T15:27:49.533Z,31.30
2018-03-08T15:31:53.145Z,37.23
2018-03-08T15:35:56.784Z,35.30
2018-03-08T15:40:00.165Z,34.80
2018-03-08T15:44:04.290Z,33.67
2018-03-08T15:48:07.688Z,31.73
2018-03-08T15:52:11.910Z,30.90
2018-03-08T15:56:16.070Z,30.57
2018-03-08T16:00:19.464Z,29.90
2018-03-08T16:04:22.926Z,31.10
2018-03-08T16:08:35.055Z,29.17
2018-03-08T16:12:39.307Z,34.30
2018-03-08T16:16:42.722Z,33.70
2018-03-08T16:20:46.213Z,29.87
2018-03-08T16:24:49.706Z,28.30
2018-03-08T16:28:53.837Z,29.43
2018-03-08T16:32:58.060Z,30.20
2018-03-08T16:37:02.288Z,31.17
2018-03-08T16:41:05.744Z,34.13
2018-03-08T16:45:09.114Z,35.03
2018-03-08T16:49:12.518Z,32.30
2018-03-08T16:53:15.898Z,33.90
2018-03-08T16:57:20.032Z,34.87
2018-03-08T17:01:24.162Z,34.77
2018-03-08T17:05:27.558Z,31.77
2018-03-08T17:09:31.718Z,31.10
2018-03-08T17:13:35.191Z,30.90
2018-03-08T17:17:39.390Z,31.53
2018-03-08T17:21:42.829Z,32.90
2018-03-08T17:25:46.966Z,34.73
2018-03-08T17:29:50.345Z,29.33
2018-03-08T17:33:54.470Z,30.90
2018-03-08T17:37:58.616Z,25.93
2018-03-08T17:42:02.061Z,25.47
2018-03-08T17:46:05.462Z,19.93
2018-03-08T17:50:08.870Z,16.27
2018-03-08T17:54:12.372Z,16.90
2018-03-08T17:58:15.800Z,15.80
2018-03-08T18:02:19.188Z,16.10
2018-03-08T18:06:22.554Z,18.50
2018-03-08T18:10:26.685Z,18.60
2018-03-08T18:14:30.082Z,20.03
2018-03-08T18:18:34.239Z,21.90
2018-03-08T18:22:37.646Z,21.50
2018-03-08T18:26:41.019Z,19.70
2018-03-08T18:30:45.277Z,18.33
2018-03-08T18:34:48.687Z,19.30
2018-03-08T18:38:52.057Z,20.40
2018-03-08T18:42:56.233Z,21.13
2018-03-08T18:46:59.688Z,22.33
2018-03-08T18:51:03.934Z,19.20
2018-03-08T18:55:07.312Z,17.03
2018-03-08T18:59:11.564Z,15.13
2018-03-08T19:03:14.934Z,15.03
2018-03-08T19:07:18.317Z,15.23
2018-03-08T19:11:21.699Z,11.83
2018-03-08T19:15:25.190Z,11.67
2018-03-08T19:19:28.645Z,10.37
2018-03-08T19:23:32.086Z,8.70
2018-03-08T19:27:36.274Z,9.60
2018-03-08T19:31:39.702Z,9.77
2018-03-08T19:35:43.145Z,8.20
2018-03-08T19:39:46.553Z,7.60
2018-03-08T19:43:49.923Z,7.37
2018-03-08T19:47:54.142Z,7.57
2018-03-08T19:51:57.862Z,6.90
2018-03-08T19:56:02.068Z,6.97
2018-03-08T20:00:05.458Z,6.93
2018-03-08T20:04:08.866Z,7.83
2018-03-08T20:08:12.243Z,7.63
2018-03-08T20:12:15.685Z,6.50
2018-03-08T20:16:19.072Z,7.63
2018-03-08T20:20:22.485Z,8.07
2018-03-08T20:24:25.873Z,7.07
2018-03-08T20:28:29.451Z,7.43
2018-03-08T20:32:33.624Z,8.40
2018-03-08T20:36:37.022Z,9.87
2018-03-08T20:40:40.434Z,11.33
2018-03-08T20:44:43.835Z,10.00
2018-03-08T20:48:47.415Z,9.97
2018-03-08T20:52:50.821Z,10.97
2018-03-08T20:56:54.179Z,12.03
2018-03-08T21:00:57.571Z,12.37
2018-03-08T21:05:00.941Z,13.27
2018-03-08T21:09:04.318Z,12.80
2018-03-08T21:13:07.733Z,12.90
2018-03-08T21:17:11.160Z,13.23
2018-03-08T21:21:15.319Z,17.80
2018-03-08T21:25:18.889Z,16.73
2018-03-08T21:29:22.306Z,18.93
2018-03-08T21:33:25.659Z,19.60
2018-03-08T21:37:29.060Z,18.43
2018-03-08T21:41:32.456Z,19.83
2018-03-08T21:45:35.831Z,18.97
2018-03-08T21:49:39.189Z,18.33
2018-03-08T21:53:42.560Z,19.77
2018-03-08T21:57:45.923Z,19.80
2018-03-08T22:01:50.058Z,20.53
2018-03-08T22:05:54.215Z,21.47
2018-03-08T22:09:57.612Z,21.67
2018-03-08T22:14:00.985Z,20.27
2018-03-08T22:18:05.109Z,21.17
2018-03-08T22:22:09.257Z,19.50
2018-03-08T22:26:12.617Z,21.03
2018-03-08T22:30:16.796Z,22.30
2018-03-08T22:34:20.165Z,20.90
2018-03-08T22:38:24.308Z,22.00
2018-03-08T22:42:27.799Z,20.87
2018-03-08T22:46:31.961Z,18.50
2018-03-08T22:50:35.329Z,20.20
2018-03-08T22:54:39.463Z,19.53
2018-03-08T22:58:42.855Z,19.67
2018-03-08T23:02:47.025Z,19.13
2018-03-08T23:06:50.410Z,17.17
2018-03-08T23:10:53.798Z,19.30
2018-03-08T23:14:58.002Z,18.33
2018-03-08T23:19:02.895Z,18.23
2018-03-08T23:23:06.272Z,16.53
2018-03-08T23:27:09.697Z,15.53
2018-03-08T23:31:13.067Z,16.47
2018-03-08T23:35:16.456Z,16.60
2018-03-08T23:39:19.826Z,16.83
2018-03-08T23:43:24.806Z,16.90
2018-03-08T23:47:28.203Z,17.53
2018-03-08T23:51:31.613Z,18.57
2018-03-08T23:55:34.985Z,17.30
2018-03-08T23:59:38.333Z,16.53
